createdAt,value
2023-10-24T00:00:19.904Z,94
2023-10-24T00:05:25.494Z,94
2023-10-24T00:10:31.143Z,94
2023-10-24T00:15:20.273Z,94
2023-10-24T00:20:26.212Z,94
2023-10-24T00:25:32.424Z,94
2023-10-24T00:30:21.349Z,94
2023-10-24T00:35:27.378Z,94
2023-10-24T00:40:33.511Z,94
2023-10-24T00:45:22.516Z,94
2023-10-24T00:50:28.579Z,94
2023-10-24T00:55:18.518Z,94
2023-10-24T01:00:23.114Z,94
2023-10-24T01:05:29.352Z,94
2023-10-24T01:10:18.364Z,94
2023-10-24T01:15:24.546Z,94
2023-10-24T01:20:30.593Z,94
2023-10-24T01:25:19.672Z,94
2023-10-24T01:30:25.746Z,94
2023-10-24T01:35:31.756Z,94
2023-10-24T01:40:20.806Z,95
2023-10-24T01:45:26.902Z,95
2023-10-24T01:50:32.922Z,95
2023-10-24T01:55:22.040Z,95
2023-10-24T02:00:28.139Z,95
2023-10-24T02:05:33.045Z,95
2023-10-24T02:10:22.135Z,95
2023-10-24T02:15:28.140Z,95
2023-10-24T02:20:34.236Z,95
2023-10-24T02:25:23.134Z,95
2023-10-24T02:30:29.382Z,94
2023-10-24T02:35:18.429Z,93
2023-10-24T02:40:24.390Z,93
2023-10-24T02:45:30.476Z,92
2023-10-24T02:50:19.490Z,92
2023-10-24T02:55:25.780Z,92
2023-10-24T03:00:31.330Z,92
2023-10-24T03:05:20.724Z,93
2023-10-24T03:10:27.446Z,93
2023-10-24T03:15:34.212Z,93
2023-10-24T03:20:21.793Z,93
2023-10-24T03:25:27.919Z,94
2023-10-24T03:30:34.467Z,94
2023-10-24T03:35:22.997Z,94
2023-10-24T03:40:29.086Z,94
2023-10-24T03:45:35.122Z,94
2023-10-24T03:50:24.109Z,94
2023-10-24T03:55:30.275Z,94
2023-10-24T04:00:18.775Z,95
2023-10-24T04:05:24.975Z,94
2023-10-24T04:10:30.231Z,94
2023-10-24T04:15:19.300Z,95
2023-10-24T04:20:25.305Z,95
2023-10-24T04:25:31.435Z,95
2023-10-24T04:30:20.604Z,95
2023-10-24T04:35:26.466Z,95
2023-10-24T04:40:32.673Z,95
2023-10-24T04:45:21.826Z,95
2023-10-24T04:50:27.799Z,95
2023-10-24T04:55:33.731Z,95
2023-10-24T05:00:22.259Z,95
2023-10-24T05:05:28.597Z,94
2023-10-24T05:10:35.378Z,94
2023-10-24T05:15:23.745Z,94
2023-10-24T05:20:29.871Z,94
2023-10-24T05:25:18.871Z,94
2023-10-24T05:30:24.908Z,94
2023-10-24T05:35:31.608Z,94
2023-10-24T05:40:19.994Z,94
2023-10-24T05:45:26.148Z,94
2023-10-24T05:50:32.147Z,94
2023-10-24T05:55:21.223Z,94
2023-10-24T06:00:26.596Z,94
2023-10-24T06:05:32.101Z,95
2023-10-24T06:10:20.955Z,95
2023-10-24T06:15:27.396Z,95
2023-10-24T06:20:33.102Z,95
2023-10-24T06:25:22.012Z,95
2023-10-24T06:30:28.224Z,95
2023-10-24T06:35:34.290Z,95
2023-10-24T06:40:23.339Z,95
2023-10-24T06:45:30.693Z,94
2023-10-24T06:50:18.335Z,94
2023-10-24T06:55:24.558Z,93
2023-10-24T07:00:30.175Z,93
2023-10-24T07:05:19.293Z,93
2023-10-24T07:10:25.567Z,93
2023-10-24T07:15:32.481Z,93
2023-10-24T07:20:20.469Z,93
2023-10-24T07:25:27.494Z,92
2023-10-24T07:30:32.563Z,92
2023-10-24T07:35:21.554Z,92
2023-10-24T07:40:27.696Z,92
2023-10-24T07:45:33.950Z,92
2023-10-24T07:50:22.811Z,92
2023-10-24T07:55:29.097Z,91
2023-10-24T08:00:34.598Z,91
2023-10-24T08:05:23.726Z,91
2023-10-24T08:10:29.931Z,91
2023-10-24T08:15:18.901Z,90
2023-10-24T08:20:24.990Z,90
2023-10-24T08:25:31.068Z,90
2023-10-24T08:30:20.009Z,90
2023-10-24T08:35:26.202Z,91
2023-10-24T08:40:32.191Z,90
2023-10-24T08:45:21.352Z,91
2023-10-24T08:50:27.351Z,91
2023-10-24T08:55:33.618Z,91
2023-10-24T09:00:21.881Z,91
2023-10-24T09:05:27.899Z,90
2023-10-24T09:10:33.909Z,90
2023-10-24T09:15:23.021Z,90
2023-10-24T09:20:29.067Z,90
2023-10-24T09:25:18.055Z,90
2023-10-24T09:30:24.157Z,89
2023-10-24T09:35:30.170Z,89
2023-10-24T09:40:19.173Z,89
2023-10-24T09:45:25.411Z,89
2023-10-24T09:50:31.387Z,89
2023-10-24T09:55:20.439Z,89
2023-10-24T10:00:26.132Z,89
2023-10-24T10:05:32.658Z,88
2023-10-24T10:10:22.494Z,88
2023-10-24T10:15:27.635Z,88
2023-10-24T10:20:33.721Z,88
2023-10-24T10:25:22.736Z,89
2023-10-24T10:30:34.114Z,89
2023-10-24T10:35:34.998Z,89
2023-10-24T10:40:23.867Z,89
2023-10-24T10:45:29.963Z,89
2023-10-24T10:50:19.299Z,89
2023-10-24T10:55:25.347Z,89
2023-10-24T11:00:38.867Z,90
2023-10-24T11:05:18.863Z,90
2023-10-24T11:10:24.930Z,90
2023-10-24T11:15:30.875Z,90
2023-10-24T11:20:23.301Z,91
2023-10-24T11:25:26.174Z,91
2023-10-24T11:30:32.323Z,91
2023-10-24T11:35:21.285Z,91
2023-10-24T11:40:27.338Z,91
2023-10-24T11:45:34.073Z,91
2023-10-24T11:50:22.380Z,91
2023-10-24T11:55:28.588Z,92
2023-10-24T12:00:34.433Z,92
2023-10-24T12:05:23.637Z,92
2023-10-24T12:10:29.676Z,92
2023-10-24T12:15:18.841Z,92
2023-10-24T12:20:24.837Z,92
2023-10-24T12:25:30.966Z,92
2023-10-24T12:30:19.904Z,93
2023-10-24T12:35:25.931Z,93
2023-10-24T12:40:31.946Z,93
2023-10-24T12:45:21.001Z,93
2023-10-24T12:50:27.126Z,93
2023-10-24T12:55:33.206Z,94
2023-10-24T13:00:21.858Z,94
2023-10-24T13:05:27.224Z,94
2023-10-24T13:10:33.210Z,94
2023-10-24T13:15:22.652Z,94
2023-10-24T13:20:28.434Z,95
2023-10-24T13:25:34.432Z,95
2023-10-24T13:30:37.619Z,95
2023-10-24T13:40:18.551Z,95
2023-10-24T13:45:24.676Z,95
2023-10-24T13:50:30.713Z,95
2023-10-24T13:55:20.096Z,95
2023-10-24T14:00:25.262Z,95
2023-10-24T14:05:31.547Z,95
2023-10-24T14:10:21.357Z,95
2023-10-24T14:15:29.365Z,95
2023-10-24T14:20:32.702Z,95
2023-10-24T14:25:21.850Z,95
2023-10-24T14:30:27.909Z,95
2023-10-24T14:35:33.940Z,96
2023-10-24T14:40:23.003Z,96
2023-10-24T14:45:29.107Z,96
2023-10-24T14:50:34.984Z,96
2023-10-24T14:55:24.031Z,96
2023-10-24T15:00:29.834Z,96
2023-10-24T15:05:18.214Z,96
2023-10-24T15:10:24.480Z,96
2023-10-24T15:15:30.387Z,96
2023-10-24T15:20:19.655Z,96
2023-10-24T15:25:25.441Z,96
2023-10-24T15:30:32.150Z,97
2023-10-24T15:35:20.467Z,97
2023-10-24T15:40:27.252Z,97
2023-10-24T15:45:33.247Z,97
2023-10-24T15:50:21.728Z,97
2023-10-24T15:55:28.418Z,97
2023-10-24T16:00:33.414Z,97
2023-10-24T16:05:22.797Z,97
2023-10-24T16:10:28.878Z,97
2023-10-24T16:15:34.875Z,97
2023-10-24T16:20:23.761Z,97
2023-10-24T16:25:30.085Z,97
2023-10-24T16:30:19.084Z,97
2023-10-24T16:35:25.084Z,97
2023-10-24T16:40:31.186Z,97
2023-10-24T16:45:20.050Z,97
2023-10-24T16:50:26.186Z,97
2023-10-24T16:55:32.284Z,97
2023-10-24T17:00:20.827Z,97
2023-10-24T17:05:26.233Z,97
2023-10-24T17:10:32.341Z,97
2023-10-24T17:15:21.223Z,97
2023-10-24T17:20:28.221Z,97
2023-10-24T17:25:33.408Z,97
2023-10-24T17:30:22.568Z,97
2023-10-24T17:35:28.647Z,97
2023-10-24T17:40:34.587Z,98
2023-10-24T17:45:23.683Z,98
2023-10-24T17:50:29.695Z,98
2023-10-24T17:55:18.785Z,98
2023-10-24T18:00:24.616Z,98
2023-10-24T18:05:29.959Z,98
2023-10-24T18:10:18.786Z,98
2023-10-24T18:15:24.985Z,98
2023-10-24T18:20:31.040Z,98
2023-10-24T18:25:20.145Z,98
2023-10-24T18:30:26.196Z,98
2023-10-24T18:35:32.218Z,98
2023-10-24T18:40:21.226Z,98
2023-10-24T18:45:27.330Z,98
2023-10-24T18:50:33.396Z,98
2023-10-24T18:55:22.468Z,98
2023-10-24T19:00:28.059Z,98
2023-10-24T19:05:34.634Z,98
2023-10-24T19:10:23.447Z,98
2023-10-24T19:15:29.769Z,98
2023-10-24T19:20:18.673Z,98
2023-10-24T19:25:24.724Z,98
2023-10-24T19:30:30.955Z,98
2023-10-24T19:35:19.925Z,98
2023-10-24T19:40:25.914Z,98
2023-10-24T19:45:32.089Z,98
2023-10-24T19:50:20.918Z,98
2023-10-24T19:55:33.283Z,98
2023-10-24T20:00:32.548Z,98
2023-10-24T20:05:21.057Z,98
2023-10-24T20:12:30.951Z,98
2023-10-24T20:12:32.209Z,98
2023-10-24T20:12:42.023Z,98
2023-10-24T20:15:33.232Z,98
2023-10-24T20:20:22.233Z,98
2023-10-24T20:25:28.290Z,98
2023-10-24T20:30:35.545Z,98
2023-10-24T20:35:23.277Z,98
2023-10-24T20:40:29.453Z,98
2023-10-24T20:45:19.103Z,98
2023-10-24T20:50:24.542Z,98
2023-10-24T20:55:30.610Z,98
2023-10-24T21:00:19.819Z,98
2023-10-24T21:05:25.268Z,98
2023-10-24T21:10:31.343Z,98
2023-10-24T21:15:20.529Z,98
2023-10-24T21:20:26.482Z,98
2023-10-24T21:25:32.625Z,98
2023-10-24T21:30:21.634Z,98
2023-10-24T21:35:27.648Z,98
2023-10-24T21:40:33.749Z,98
2023-10-24T21:45:22.966Z,98
2023-10-24T21:50:28.942Z,98
2023-10-24T21:55:34.895Z,98
2023-10-24T22:00:23.378Z,98
2023-10-24T22:05:29.932Z,98
2023-10-24T22:10:18.837Z,98
2023-10-24T22:15:24.839Z,98
2023-10-24T22:20:30.972Z,98
2023-10-24T22:25:20.080Z,98
2023-10-24T22:30:26.104Z,98
2023-10-24T22:35:32.161Z,98
2023-10-24T22:40:21.038Z,98
2023-10-24T22:45:27.452Z,98
2023-10-24T22:50:33.266Z,98
2023-10-24T22:55:22.435Z,98
2023-10-24T23:00:27.643Z,98
2023-10-24T23:05:32.966Z,98
2023-10-24T23:10:22.009Z,98
2023-10-24T23:15:28.223Z,98
2023-10-24T23:20:34.230Z,98
2023-10-24T23:25:23.346Z,98
2023-10-24T23:30:29.389Z,98
2023-10-24T23:35:18.472Z,98
2023-10-24T23:40:24.459Z,98
2023-10-24T23:45:30.572Z,98
2023-10-24T23:50:19.545Z,98
2023-10-24T23:55:25.696Z,98
